createdAt,value
2023-01-23T00:01:45.266Z,61.49
2023-01-23T00:04:15.785Z,62.50
2023-01-23T00:06:44.883Z,62.22
2023-01-23T00:09:13.838Z,63.39
2023-01-23T00:11:42.405Z,62.90
2023-01-23T00:14:11.896Z,62.93
2023-01-23T00:16:40.431Z,63.40
2023-01-23T00:19:11.520Z,64.50
2023-01-23T00:21:41.540Z,64.39
2023-01-23T00:24:13.159Z,64.40
2023-01-23T00:26:42.981Z,63.57
2023-01-23T00:29:11.850Z,63.46
2023-01-23T00:31:40.839Z,62.65
2023-01-23T00:34:16.532Z,62.29
2023-01-23T00:36:46.627Z,62.45
2023-01-23T00:39:18.958Z,61.97
2023-01-23T00:41:48.866Z,61.55
2023-01-23T00:44:18.086Z,61.62
2023-01-23T00:46:46.803Z,61.00
2023-01-23T00:49:17.906Z,61.07
2023-01-23T00:51:48.012Z,60.73
2023-01-23T00:54:17.071Z,60.71
2023-01-23T00:56:46.029Z,60.85
2023-01-23T00:59:15.227Z,60.83
2023-01-23T01:01:43.875Z,60.14
2023-01-23T01:04:12.780Z,59.93
2023-01-23T01:06:41.419Z,60.40
2023-01-23T01:09:11.716Z,59.75
2023-01-23T01:11:40.293Z,60.32
2023-01-23T01:14:09.695Z,59.86
2023-01-23T01:16:38.457Z,59.85
2023-01-23T01:19:07.353Z,60.69
2023-01-23T01:21:36.182Z,60.91
2023-01-23T01:24:05.253Z,61.23
2023-01-23T01:26:35.179Z,61.36
2023-01-23T01:29:04.393Z,61.54
2023-01-23T01:31:33.061Z,61.60
2023-01-23T01:34:01.928Z,60.74
2023-01-23T01:36:30.712Z,61.38
2023-01-23T01:38:59.585Z,61.68
2023-01-23T01:41:28.318Z,61.52
2023-01-23T01:44:00.150Z,61.64
2023-01-23T01:46:31.043Z,60.87
2023-01-23T01:49:10.405Z,61.16
2023-01-23T01:51:45.471Z,61.45
2023-01-23T01:54:22.973Z,60.88
2023-01-23T01:56:56.637Z,61.23
2023-01-23T01:59:31.482Z,60.69
2023-01-23T02:02:06.022Z,60.88
2023-01-23T02:04:37.622Z,61.26
2023-01-23T02:07:10.442Z,61.55
2023-01-23T02:09:39.606Z,61.12
2023-01-23T02:12:08.987Z,62.18
2023-01-23T02:14:39.566Z,62.69
2023-01-23T02:17:08.336Z,62.63
2023-01-23T02:19:45.186Z,62.15
2023-01-23T02:22:24.630Z,62.91
2023-01-23T02:25:04.401Z,63.89
2023-01-23T02:27:34.561Z,64.11
2023-01-23T02:30:06.184Z,64.83
2023-01-23T02:32:36.381Z,64.62
2023-01-23T02:35:11.841Z,64.64
2023-01-23T02:37:45.020Z,65.51
2023-01-23T02:40:15.035Z,65.86
2023-01-23T02:42:47.897Z,66.74
2023-01-23T02:45:18.820Z,66.51
2023-01-23T02:47:48.143Z,66.87
2023-01-23T02:50:18.380Z,67.01
2023-01-23T02:52:47.307Z,67.15
2023-01-23T02:55:16.464Z,68.07
2023-01-23T02:57:46.571Z,67.53
2023-01-23T03:00:20.435Z,67.42
2023-01-23T03:02:52.150Z,68.32
2023-01-23T03:05:21.409Z,68.92
2023-01-23T03:07:53.656Z,69.02
2023-01-23T03:10:25.213Z,69.20
2023-01-23T03:12:58.278Z,68.37
2023-01-23T03:15:27.171Z,68.55
2023-01-23T03:17:55.676Z,68.45
2023-01-23T03:20:27.020Z,69.02
2023-01-23T03:22:55.666Z,69.37
2023-01-23T03:25:24.577Z,69.90
2023-01-23T03:27:56.320Z,70.07
2023-01-23T03:30:25.684Z,70.00
2023-01-23T03:32:54.493Z,70.40
2023-01-23T03:35:23.655Z,70.77
2023-01-23T03:37:55.088Z,70.69
2023-01-23T03:40:43.296Z,71.53
2023-01-23T03:43:16.759Z,70.57
2023-01-23T03:45:50.608Z,71.40
2023-01-23T03:48:20.067Z,71.37
2023-01-23T03:50:49.178Z,71.22
2023-01-23T03:53:19.416Z,70.95
2023-01-23T03:55:48.780Z,70.53
2023-01-23T03:58:24.071Z,70.91
2023-01-23T04:00:53.176Z,71.32
2023-01-23T04:03:22.321Z,71.69
2023-01-23T04:05:51.102Z,70.89
2023-01-23T04:08:19.640Z,70.54
2023-01-23T04:10:49.173Z,70.05
2023-01-23T04:13:18.773Z,69.81
2023-01-23T04:15:49.285Z,69.74
2023-01-23T04:18:17.923Z,69.93
2023-01-23T04:20:47.186Z,69.97
2023-01-23T04:23:15.856Z,68.96
2023-01-23T04:25:44.920Z,69.43
2023-01-23T04:28:16.350Z,69.29
2023-01-23T04:30:46.897Z,69.18
2023-01-23T04:33:23.768Z,69.85
2023-01-23T04:35:55.324Z,70.13
2023-01-23T04:38:25.050Z,69.98
2023-01-23T04:40:55.043Z,70.83
2023-01-23T04:43:23.945Z,70.06
2023-01-23T04:45:55.118Z,70.50
2023-01-23T04:48:46.842Z,70.52
2023-01-23T04:51:18.970Z,70.63
2023-01-23T04:53:47.801Z,71.15
2023-01-23T04:56:16.645Z,70.66
2023-01-23T04:58:45.509Z,69.92
2023-01-23T05:01:23.317Z,70.61
2023-01-23T05:03:58.248Z,70.25
2023-01-23T05:06:27.191Z,69.79
2023-01-23T05:08:58.246Z,69.75
2023-01-23T05:11:36.877Z,69.76
2023-01-23T05:14:05.507Z,69.24
2023-01-23T05:16:35.572Z,69.40
2023-01-23T05:19:21.305Z,68.77
2023-01-23T05:21:50.549Z,69.25
2023-01-23T05:24:22.640Z,69.51
2023-01-23T05:26:52.137Z,68.73
2023-01-23T05:29:21.846Z,68.87
2023-01-23T05:32:11.600Z,68.94
2023-01-23T05:34:41.642Z,67.83
2023-01-23T05:37:25.390Z,67.65
2023-01-23T05:40:02.051Z,67.70
2023-01-23T05:42:51.323Z,67.32
2023-01-23T05:45:38.278Z,67.06
2023-01-23T05:48:13.212Z,67.22
2023-01-23T05:50:43.171Z,67.14
2023-01-23T05:53:13.088Z,66.90
2023-01-23T05:55:43.058Z,67.24
2023-01-23T05:58:16.097Z,66.62
2023-01-23T06:01:03.829Z,66.42
2023-01-23T06:03:51.427Z,66.11
2023-01-23T06:06:44.225Z,66.71
2023-01-23T06:09:13.741Z,66.60
2023-01-23T06:11:42.495Z,66.40
2023-01-23T06:14:11.777Z,66.23
2023-01-23T06:16:40.631Z,66.93
2023-01-23T06:19:11.194Z,66.68
2023-01-23T06:21:40.232Z,66.42
2023-01-23T06:24:10.970Z,66.47
2023-01-23T06:26:39.654Z,66.42
2023-01-23T06:29:08.904Z,65.50
2023-01-23T06:31:38.069Z,65.31
2023-01-23T06:34:07.853Z,65.67
2023-01-23T06:36:43.171Z,66.03
2023-01-23T06:39:16.057Z,65.12
2023-01-23T06:41:45.153Z,64.84
2023-01-23T06:44:20.357Z,65.24
2023-01-23T06:46:49.007Z,65.18
2023-01-23T06:49:18.324Z,64.77
2023-01-23T06:51:46.892Z,64.78
2023-01-23T06:54:17.334Z,64.52
2023-01-23T06:56:46.611Z,64.24
2023-01-23T06:59:16.735Z,64.30
2023-01-23T07:01:45.651Z,64.86
2023-01-23T07:04:21.196Z,63.85
2023-01-23T07:06:52.209Z,63.82
2023-01-23T07:09:23.677Z,63.24
2023-01-23T07:12:07.738Z,63.20
2023-01-23T07:14:37.028Z,63.42
2023-01-23T07:17:05.951Z,63.59
2023-01-23T07:19:34.835Z,64.12
2023-01-23T07:22:07.050Z,63.90
2023-01-23T07:24:37.482Z,62.94
2023-01-23T07:27:06.153Z,62.70
2023-01-23T07:29:35.000Z,62.91
2023-01-23T07:32:03.563Z,62.49
2023-01-23T07:34:32.699Z,62.77
2023-01-23T07:37:01.194Z,62.55
2023-01-23T07:39:30.002Z,62.21
2023-01-23T07:42:00.357Z,61.80
2023-01-23T07:44:30.758Z,62.36
2023-01-23T07:46:59.345Z,61.52
2023-01-23T07:49:28.301Z,61.80
2023-01-23T07:51:56.880Z,62.26
2023-01-23T07:54:25.709Z,62.02
2023-01-23T07:56:54.532Z,62.41
2023-01-23T07:59:24.889Z,62.08
2023-01-23T08:01:53.491Z,62.13
2023-01-23T08:04:22.817Z,62.12
2023-01-23T08:06:51.410Z,61.19
2023-01-23T08:09:20.260Z,61.32
2023-01-23T08:11:48.863Z,61.69
2023-01-23T08:14:17.710Z,61.82
2023-01-23T08:16:49.975Z,61.77
2023-01-23T08:19:19.772Z,61.82
2023-01-23T08:21:48.317Z,61.17
2023-01-23T08:24:17.532Z,61.29
2023-01-23T08:26:46.087Z,61.07
2023-01-23T08:29:15.122Z,60.88
2023-01-23T08:31:43.853Z,61.35
2023-01-23T08:34:14.241Z,60.17
2023-01-23T08:36:43.228Z,60.72
2023-01-23T08:39:12.117Z,60.51
2023-01-23T08:41:41.208Z,59.91
2023-01-23T08:44:10.105Z,60.32
2023-01-23T08:46:38.672Z,60.67
2023-01-23T08:49:08.541Z,60.68
2023-01-23T08:51:39.996Z,60.29
2023-01-23T08:54:09.155Z,60.38
2023-01-23T08:56:37.775Z,60.64
2023-01-23T08:59:06.961Z,60.15
2023-01-23T09:01:35.565Z,60.50
2023-01-23T09:04:04.426Z,59.63
2023-01-23T09:06:33.057Z,59.79
2023-01-23T09:09:03.340Z,59.28
2023-01-23T09:11:32.524Z,59.03
2023-01-23T09:14:01.418Z,59.21
2023-01-23T09:16:49.940Z,58.93
2023-01-23T09:19:18.861Z,58.90
2023-01-23T09:21:47.372Z,58.99
2023-01-23T09:24:17.850Z,58.48
2023-01-23T09:26:46.433Z,58.90
2023-01-23T09:29:16.143Z,58.81
2023-01-23T09:31:44.684Z,58.19
2023-01-23T09:34:15.035Z,58.02
2023-01-23T09:36:45.418Z,57.77
2023-01-23T09:39:14.307Z,57.35
2023-01-23T09:41:45.953Z,57.42
2023-01-23T09:44:20.347Z,57.78
2023-01-23T09:46:52.716Z,57.58
2023-01-23T09:49:28.163Z,58.15
2023-01-23T09:52:02.298Z,58.17
2023-01-23T09:54:38.502Z,57.98
2023-01-23T09:57:15.481Z,58.64
2023-01-23T10:00:00.744Z,57.37
2023-01-23T10:02:30.877Z,57.53
2023-01-23T10:05:02.957Z,56.88
2023-01-23T10:07:50.264Z,56.92
2023-01-23T10:10:49.555Z,56.70
2023-01-23T10:13:24.160Z,56.49
2023-01-23T10:16:24.457Z,55.39
2023-01-23T10:19:03.769Z,55.46
2023-01-23T10:21:40.257Z,55.09
2023-01-23T10:24:26.051Z,55.26
2023-01-23T10:26:59.694Z,55.59
2023-01-23T10:29:35.957Z,55.52
2023-01-23T10:32:06.389Z,55.16
2023-01-23T10:34:45.088Z,55.49
2023-01-23T10:37:21.676Z,55.50
2023-01-23T10:39:55.470Z,55.40
2023-01-23T10:42:27.896Z,54.50
2023-01-23T10:44:57.987Z,54.82
2023-01-23T10:47:33.597Z,54.67
2023-01-23T10:50:04.020Z,55.13
2023-01-23T10:52:36.144Z,54.42
2023-01-23T10:55:06.356Z,54.96
2023-01-23T10:57:48.483Z,54.66
2023-01-23T11:00:28.839Z,55.03
2023-01-23T11:02:57.794Z,55.25
2023-01-23T11:05:50.664Z,54.93
2023-01-23T11:08:27.202Z,55.62
2023-01-23T11:11:12.988Z,56.09
2023-01-23T11:13:44.360Z,55.77
2023-01-23T11:16:17.538Z,56.07
2023-01-23T11:18:53.981Z,55.71
2023-01-23T11:21:23.795Z,56.18
2023-01-23T11:24:10.198Z,55.34
2023-01-23T11:26:39.877Z,56.16
2023-01-23T11:29:24.833Z,55.98
2023-01-23T11:32:00.236Z,56.08
2023-01-23T11:34:34.883Z,56.04
2023-01-23T11:37:14.330Z,56.79
2023-01-23T11:39:52.018Z,56.71
2023-01-23T11:42:21.121Z,56.57
2023-01-23T11:44:51.335Z,55.94
2023-01-23T11:47:50.426Z,56.22
2023-01-23T11:50:50.006Z,56.04
2023-01-23T11:53:41.546Z,55.37
2023-01-23T11:56:26.939Z,55.55
2023-01-23T11:59:25.803Z,55.98
2023-01-23T12:02:21.928Z,56.23
2023-01-23T12:05:26.391Z,56.81
2023-01-23T12:08:07.853Z,56.41
2023-01-23T12:10:45.116Z,56.63
2023-01-23T12:13:34.736Z,55.95
2023-01-23T12:16:16.390Z,55.69
2023-01-23T12:18:54.757Z,56.42
2023-01-23T12:21:34.931Z,56.84
2023-01-23T12:24:18.645Z,56.76
2023-01-23T12:27:01.766Z,56.17
2023-01-23T12:29:45.320Z,55.87
2023-01-23T12:32:35.204Z,55.23
2023-01-23T12:35:23.504Z,55.84
2023-01-23T12:38:08.710Z,55.80
2023-01-23T12:40:44.962Z,55.93
2023-01-23T12:43:19.644Z,55.94
2023-01-23T12:45:54.081Z,56.73
2023-01-23T12:48:28.606Z,56.31
2023-01-23T12:51:03.808Z,56.04
2023-01-23T12:53:38.632Z,56.17
2023-01-23T12:56:14.905Z,56.34
2023-01-23T12:58:52.399Z,56.37
2023-01-23T13:01:35.929Z,55.42
2023-01-23T13:04:16.178Z,55.27
2023-01-23T13:07:09.303Z,54.73
2023-01-23T13:09:52.222Z,55.71
2023-01-23T13:12:24.825Z,54.96
2023-01-23T13:17:48.817Z,55.15
2023-01-23T13:20:41.311Z,55.01
2023-01-23T13:23:25.139Z,55.33
2023-01-23T13:26:28.982Z,55.86
2023-01-23T13:29:02.343Z,55.75
2023-01-23T13:31:38.070Z,56.38
2023-01-23T13:34:38.206Z,55.66
2023-01-23T13:37:47.001Z,56.16
2023-01-23T13:40:20.494Z,55.51
2023-01-23T13:42:49.904Z,56.26
2023-01-23T13:45:29.428Z,55.89
2023-01-23T14:20:24.490Z,55.92
2023-01-23T14:22:56.569Z,55.44
2023-01-23T14:25:26.692Z,54.92
2023-01-23T14:28:04.569Z,55.33
2023-01-23T14:30:33.683Z,55.40
2023-01-23T14:33:02.383Z,55.84
2023-01-23T14:35:34.040Z,55.55
2023-01-23T14:38:07.959Z,55.86
2023-01-23T14:40:49.254Z,56.39
2023-01-23T14:43:22.997Z,55.92
2023-01-23T14:46:01.697Z,56.17
2023-01-23T14:48:35.243Z,56.43
2023-01-23T14:51:08.719Z,57.24
2023-01-23T14:53:42.646Z,57.52
2023-01-23T14:56:13.289Z,57.55
2023-01-23T14:58:43.264Z,57.79
2023-01-23T15:01:12.503Z,57.80
2023-01-23T15:03:43.906Z,57.93
2023-01-23T15:06:21.065Z,58.27
2023-01-23T15:08:52.329Z,59.46
2023-01-23T15:11:27.558Z,58.99
2023-01-23T15:14:01.604Z,58.81
2023-01-23T15:16:36.204Z,58.73
2023-01-23T15:19:08.693Z,58.56
2023-01-23T15:21:40.489Z,59.36
2023-01-23T15:24:26.984Z,59.61
2023-01-23T15:27:03.622Z,59.30
2023-01-23T15:29:33.765Z,59.41
2023-01-23T15:32:03.380Z,58.60
2023-01-23T15:34:34.787Z,59.06
2023-01-23T15:37:07.049Z,58.95
2023-01-23T15:39:49.828Z,58.84
2023-01-23T15:42:27.771Z,58.47
2023-01-23T15:45:01.061Z,58.49
2023-01-23T15:47:31.949Z,58.47
2023-01-23T15:50:01.750Z,58.35
2023-01-23T15:52:33.075Z,58.66
2023-01-23T15:55:06.557Z,58.91
2023-01-23T15:57:35.890Z,57.94
2023-01-23T16:00:15.830Z,57.97
2023-01-23T16:02:55.721Z,58.83
2023-01-23T16:05:27.515Z,58.36
2023-01-23T16:07:58.533Z,58.29
2023-01-23T16:10:31.337Z,58.61
2023-01-23T16:13:00.484Z,59.07
2023-01-23T16:15:31.239Z,58.88
2023-01-23T16:18:03.165Z,59.23
2023-01-23T16:20:34.737Z,59.43
2023-01-23T16:23:14.631Z,59.12
2023-01-23T16:25:46.443Z,59.86
2023-01-23T16:28:16.567Z,60.60
2023-01-23T16:30:46.044Z,60.63
2023-01-23T16:33:15.051Z,60.42
2023-01-23T16:35:44.197Z,60.18
2023-01-23T16:38:21.361Z,59.83
2023-01-23T16:40:53.395Z,59.90
2023-01-23T16:43:24.039Z,60.21
2023-01-23T16:45:56.240Z,60.58
2023-01-23T16:48:28.784Z,60.21
2023-01-23T16:51:01.960Z,59.94
2023-01-23T16:53:35.052Z,60.17
2023-01-23T16:56:06.918Z,60.67
2023-01-23T16:58:40.182Z,60.05
2023-01-23T17:01:15.912Z,60.44
2023-01-23T17:03:46.195Z,60.01
2023-01-23T17:06:16.544Z,60.27
2023-01-23T17:08:45.403Z,59.78
2023-01-23T17:11:22.267Z,60.64
2023-01-23T17:13:56.893Z,60.38
2023-01-23T17:16:27.692Z,60.18
2023-01-23T17:19:00.044Z,60.48
2023-01-23T17:21:33.791Z,59.64
2023-01-23T17:24:02.727Z,59.67
2023-01-23T17:26:32.721Z,60.58
2023-01-23T17:29:01.649Z,60.19
2023-01-23T17:31:32.565Z,60.34
2023-01-23T17:34:04.008Z,60.84
2023-01-23T17:36:33.149Z,60.38
2023-01-23T17:39:02.763Z,59.46
2023-01-23T17:41:33.236Z,59.43
2023-01-23T17:44:02.408Z,59.67
2023-01-23T17:46:33.652Z,59.31
2023-01-23T17:49:02.627Z,60.05
2023-01-23T17:51:33.567Z,60.07
2023-01-23T17:54:02.472Z,60.01
2023-01-23T17:56:32.541Z,59.12
2023-01-23T17:59:01.624Z,59.51
2023-01-23T18:01:30.703Z,59.42
2023-01-23T18:03:59.611Z,58.92
2023-01-23T18:06:30.517Z,59.09
2023-01-23T18:08:59.501Z,59.41
2023-01-23T18:11:28.683Z,58.53
2023-01-23T18:14:18.928Z,58.35
2023-01-23T18:16:49.884Z,58.45
2023-01-23T18:19:21.133Z,59.02
2023-01-23T18:21:52.371Z,58.99
2023-01-23T18:24:47.492Z,58.80
2023-01-23T18:27:21.659Z,58.65
2023-01-23T18:30:17.136Z,59.21
2023-01-23T18:33:29.262Z,58.90
2023-01-23T18:36:12.456Z,59.63
2023-01-23T18:38:50.716Z,58.74
2023-01-23T18:41:23.580Z,58.93
2023-01-23T18:43:57.897Z,59.03
2023-01-23T18:46:29.130Z,59.50
2023-01-23T18:48:58.360Z,59.27
2023-01-23T18:51:38.602Z,60.01
2023-01-23T18:54:30.602Z,59.62
2023-01-23T18:57:15.542Z,59.86
2023-01-23T18:59:49.528Z,59.98
2023-01-23T19:02:30.007Z,60.52
2023-01-23T19:05:21.135Z,60.80
2023-01-23T19:07:50.761Z,60.76
2023-01-23T19:10:22.245Z,60.97
2023-01-23T19:13:03.311Z,61.11
2023-01-23T19:15:40.013Z,61.13
2023-01-23T19:18:39.105Z,61.06
2023-01-23T19:21:16.684Z,60.88
2023-01-23T19:23:57.136Z,61.30
2023-01-23T19:26:27.818Z,61.35
2023-01-23T19:28:59.758Z,61.33
2023-01-23T19:31:30.749Z,61.32
2023-01-23T19:34:02.446Z,61.54
2023-01-23T19:36:34.027Z,61.46
2023-01-23T19:39:04.551Z,61.68
2023-01-23T19:41:40.463Z,61.59
2023-01-23T19:44:13.626Z,61.99
2023-01-23T19:46:43.118Z,61.87
2023-01-23T19:49:13.830Z,62.47
2023-01-23T19:51:43.039Z,62.82
2023-01-23T19:54:13.385Z,62.45
2023-01-23T19:56:42.702Z,62.92
2023-01-23T19:59:11.798Z,63.53
2023-01-23T20:01:43.562Z,63.12
2023-01-23T20:04:17.069Z,62.65
2023-01-23T20:06:46.476Z,62.49
2023-01-23T20:09:15.740Z,62.11
2023-01-23T20:11:45.001Z,62.07
2023-01-23T20:14:14.080Z,61.63
2023-01-23T20:16:43.469Z,60.76
2023-01-23T20:19:16.526Z,60.16
2023-01-23T20:21:47.744Z,59.76
2023-01-23T20:24:18.056Z,59.49
2023-01-23T20:26:47.419Z,58.91
2023-01-23T20:29:16.318Z,58.67
2023-01-23T20:31:45.071Z,59.22
2023-01-23T20:34:15.839Z,59.03
2023-01-23T20:36:44.436Z,58.84
2023-01-23T20:39:13.980Z,58.79
2023-01-23T20:41:42.638Z,57.91
2023-01-23T20:44:11.734Z,56.90
2023-01-23T20:46:40.564Z,57.05
2023-01-23T20:49:11.278Z,57.51
2023-01-23T20:51:41.213Z,57.14
2023-01-23T20:54:09.122Z,57.28
2023-01-23T20:56:37.775Z,57.45
2023-01-23T20:59:22.989Z,56.82
2023-01-23T21:02:09.526Z,57.19
2023-01-23T21:04:40.595Z,56.84
2023-01-23T21:07:11.371Z,57.23
2023-01-23T21:09:40.402Z,57.72
2023-01-23T21:12:10.381Z,57.59
2023-01-23T21:14:39.407Z,57.88
2023-01-23T21:17:09.125Z,57.83
2023-01-23T21:19:38.976Z,58.55
2023-01-23T21:22:08.074Z,58.25
2023-01-23T21:24:38.449Z,58.00
2023-01-23T21:27:08.181Z,58.97
2023-01-23T21:29:38.928Z,58.72
2023-01-23T21:32:07.553Z,59.16
2023-01-23T21:34:36.774Z,58.56
2023-01-23T21:37:07.466Z,58.35
2023-01-23T21:39:36.470Z,57.85
2023-01-23T21:42:06.466Z,58.20
2023-01-23T21:44:35.889Z,58.34
2023-01-23T21:47:05.321Z,57.81
2023-01-23T21:49:34.634Z,58.17
2023-01-23T21:52:03.406Z,58.34
2023-01-23T21:54:32.171Z,58.38
2023-01-23T21:57:00.756Z,59.84
2023-01-23T21:59:31.630Z,58.85
2023-01-23T22:01:59.207Z,58.85
2023-01-23T22:04:28.953Z,58.65
2023-01-23T22:06:58.695Z,59.44
2023-01-23T22:09:28.344Z,59.34
2023-01-23T22:11:56.813Z,58.68
2023-01-23T22:14:25.830Z,58.28
2023-01-23T22:16:55.895Z,57.76
2023-01-23T22:19:25.957Z,58.08
2023-01-23T22:21:55.523Z,57.57
2023-01-23T22:24:24.844Z,57.71
2023-01-23T22:26:53.853Z,58.18
2023-01-23T22:29:23.192Z,58.54
2023-01-23T22:31:52.548Z,58.57
2023-01-23T22:34:23.049Z,58.22
2023-01-23T22:36:51.823Z,57.85
2023-01-23T22:39:20.801Z,59.30
2023-01-23T22:41:50.435Z,59.79
2023-01-23T22:44:20.260Z,59.00
2023-01-23T22:46:51.355Z,58.33
2023-01-23T22:49:20.668Z,58.44
2023-01-23T22:51:51.512Z,59.01
2023-01-23T22:54:20.526Z,59.02
2023-01-23T22:56:49.278Z,58.39
2023-01-23T22:59:18.104Z,58.37
2023-01-23T23:01:46.693Z,57.73
2023-01-23T23:04:15.472Z,58.04
2023-01-23T23:06:44.035Z,58.57
2023-01-23T23:09:14.800Z,57.81
2023-01-23T23:11:44.171Z,58.52
2023-01-23T23:14:13.026Z,58.11
2023-01-23T23:16:42.050Z,57.59
2023-01-23T23:19:11.206Z,57.97
2023-01-23T23:21:39.884Z,57.92
2023-01-23T23:24:09.961Z,57.69
2023-01-23T23:26:42.432Z,57.49
2023-01-23T23:29:11.275Z,57.49
2023-01-23T23:31:39.756Z,58.03
2023-01-23T23:34:08.697Z,57.47
2023-01-23T23:36:37.063Z,57.92
2023-01-23T23:39:05.866Z,57.41
2023-01-23T23:41:34.246Z,57.60
2023-01-23T23:44:05.278Z,57.99
2023-01-23T23:46:33.741Z,58.28
2023-01-23T23:49:02.585Z,58.12
2023-01-23T23:51:31.110Z,57.92
2023-01-23T23:54:00.176Z,57.52
2023-01-23T23:56:32.113Z,57.62
2023-01-23T23:59:00.938Z,58.56
